FIN32A EFHK-EBBR
Flight info
| Callsign | FIN32A |
|---|---|
| Flight time | 2h 18m |
| Altitude | 34000 |
| Route | NUNTO Y369 REKDO DCT KOSKA DCT BEDOS DCT AMRAK DCT EEL DCT EKNON DCT SUSET Z310 BATAK Z311 BEKEM |
| Aircraft | A321/M-SDE3FGHIRWY/LB1 |
Departure
| Time | 2026-05-07 18:03 |
|---|---|
| Airport | Helsinki Vantaa Airport (EFHK) |
Arrival
| Time | 2026-05-07 20:21 |
|---|---|
| Airport | Brussels Airport (EBBR) |
| Time | Latitude | Longitude | Altitude | Speed | Heading |
|---|---|---|---|---|---|
| 2026-05-07 17:29 | 60.31874 | 24.96540 | 167 ft | 0 kts | 137° |
| 2026-05-07 17:51 | 60.31881 | 24.96527 | 166 ft | 4 kts | 139° |
| 2026-05-07 17:51 | 60.31903 | 24.96495 | 166 ft | 4 kts | 156° |
| 2026-05-07 17:51 | 60.31926 | 24.96486 | 166 ft | 4 kts | 209° |
| 2026-05-07 17:51 | 60.31942 | 24.96516 | 166 ft | 4 kts | 227° |
| 2026-05-07 17:52 | 60.31955 | 24.96544 | 166 ft | 0 kts | 227° |
| 2026-05-07 17:55 | 60.31952 | 24.96536 | 166 ft | 3 kts | 227° |
| 2026-05-07 17:55 | 60.31918 | 24.96462 | 166 ft | 10 kts | 227° |
| 2026-05-07 17:56 | 60.31870 | 24.96355 | 166 ft | 11 kts | 231° |
| 2026-05-07 17:56 | 60.31854 | 24.96211 | 166 ft | 11 kts | 279° |
| 2026-05-07 17:56 | 60.31896 | 24.96086 | 167 ft | 11 kts | 317° |
| 2026-05-07 17:56 | 60.31949 | 24.95987 | 170 ft | 8 kts | 318° |
| 2026-05-07 17:57 | 60.31982 | 24.95928 | 172 ft | 6 kts | 318° |
| 2026-05-07 17:57 | 60.31990 | 24.95913 | 172 ft | 0 kts | 317° |
| 2026-05-07 17:57 | 60.31991 | 24.95912 | 172 ft | 1 kts | 317° |
| 2026-05-07 17:57 | 60.32010 | 24.95877 | 173 ft | 5 kts | 318° |
| 2026-05-07 17:58 | 60.32045 | 24.95814 | 174 ft | 9 kts | 317° |
| 2026-05-07 17:58 | 60.32097 | 24.95717 | 173 ft | 12 kts | 317° |
| 2026-05-07 17:58 | 60.32166 | 24.95589 | 173 ft | 14 kts | 317° |
| 2026-05-07 17:58 | 60.32235 | 24.95461 | 175 ft | 14 kts | 317° |
| 2026-05-07 17:59 | 60.32313 | 24.95318 | 176 ft | 15 kts | 320° |
| 2026-05-07 17:59 | 60.32405 | 24.95231 | 178 ft | 15 kts | 342° |
| 2026-05-07 17:59 | 60.32507 | 24.95165 | 180 ft | 15 kts | 342° |
| 2026-05-07 17:59 | 60.32607 | 24.95099 | 180 ft | 15 kts | 342° |
| 2026-05-07 18:00 | 60.32710 | 24.95033 | 179 ft | 17 kts | 342° |
| 2026-05-07 18:00 | 60.32827 | 24.94957 | 175 ft | 19 kts | 342° |
| 2026-05-07 18:00 | 60.32909 | 24.94881 | 175 ft | 11 kts | 320° |
| 2026-05-07 18:00 | 60.32966 | 24.94779 | 178 ft | 13 kts | 317° |
| 2026-05-07 18:01 | 60.33039 | 24.94644 | 182 ft | 15 kts | 317° |
| 2026-05-07 18:01 | 60.33105 | 24.94521 | 197 ft | 10 kts | 317° |
| 2026-05-07 18:01 | 60.33128 | 24.94423 | 195 ft | 8 kts | 250° |
| 2026-05-07 18:01 | 60.33091 | 24.94345 | 188 ft | 8 kts | 225° |
| 2026-05-07 18:02 | 60.32763 | 24.93618 | 181 ft | 93 kts | 227° |
| 2026-05-07 18:02 | 60.32180 | 24.92336 | 165 ft | 152 kts | 227° |
| 2026-05-07 18:02 | 60.31396 | 24.90616 | 483 ft | 172 kts | 225° |
| 2026-05-07 18:03 | 60.30604 | 24.88841 | 1274 ft | 169 kts | 232° |
| 2026-05-07 18:03 | 60.30025 | 24.86698 | 1631 ft | 184 kts | 251° |
| 2026-05-07 18:03 | 60.29813 | 24.84021 | 1814 ft | 205 kts | 271° |
| 2026-05-07 18:03 | 60.30070 | 24.81026 | 1966 ft | 230 kts | 283° |
| 2026-05-07 18:04 | 60.30280 | 24.77723 | 2325 ft | 247 kts | 262° |
| 2026-05-07 18:04 | 60.29755 | 24.74381 | 3025 ft | 252 kts | 250° |
| 2026-05-07 18:04 | 60.29084 | 24.71068 | 3770 ft | 256 kts | 250° |
| 2026-05-07 18:04 | 60.28396 | 24.67771 | 4484 ft | 260 kts | 250° |
| 2026-05-07 18:05 | 60.27686 | 24.64372 | 5203 ft | 264 kts | 250° |
| 2026-05-07 18:05 | 60.26970 | 24.60938 | 5919 ft | 267 kts | 250° |
| 2026-05-07 18:05 | 60.26242 | 24.57506 | 6634 ft | 270 kts | 248° |
| 2026-05-07 18:05 | 60.25419 | 24.54062 | 7346 ft | 272 kts | 245° |
| 2026-05-07 18:06 | 60.24554 | 24.50662 | 8064 ft | 274 kts | 244° |
| 2026-05-07 18:06 | 60.23668 | 24.47249 | 8826 ft | 274 kts | 244° |
| 2026-05-07 18:06 | 60.22793 | 24.43877 | 9574 ft | 275 kts | 244° |
| 2026-05-07 18:06 | 60.21908 | 24.40458 | 10282 ft | 277 kts | 244° |
| 2026-05-07 18:07 | 60.20991 | 24.36894 | 10505 ft | 297 kts | 244° |
| 2026-05-07 18:07 | 60.20011 | 24.33064 | 10634 ft | 317 kts | 244° |
| 2026-05-07 18:07 | 60.18966 | 24.28991 | 10770 ft | 337 kts | 244° |
| 2026-05-07 18:07 | 60.17882 | 24.24790 | 11140 ft | 346 kts | 244° |
| 2026-05-07 18:08 | 60.16766 | 24.20478 | 11765 ft | 348 kts | 244° |
| 2026-05-07 18:08 | 60.15645 | 24.16149 | 12437 ft | 349 kts | 245° |
| 2026-05-07 18:08 | 60.14520 | 24.11802 | 13124 ft | 350 kts | 245° |
| 2026-05-07 18:08 | 60.13391 | 24.07441 | 13818 ft | 352 kts | 245° |
| 2026-05-07 18:09 | 60.12272 | 24.03126 | 14384 ft | 353 kts | 245° |
| 2026-05-07 18:09 | 60.11133 | 23.98745 | 15005 ft | 354 kts | 245° |
| 2026-05-07 18:09 | 60.09991 | 23.94358 | 15625 ft | 354 kts | 245° |
| 2026-05-07 18:09 | 60.08846 | 23.89969 | 16286 ft | 355 kts | 245° |
| 2026-05-07 18:10 | 60.07713 | 23.85637 | 16909 ft | 355 kts | 245° |
| 2026-05-07 18:10 | 60.06556 | 23.81229 | 17473 ft | 357 kts | 245° |
| 2026-05-07 18:10 | 60.05388 | 23.76781 | 17990 ft | 361 kts | 245° |
| 2026-05-07 18:10 | 60.04215 | 23.72319 | 18555 ft | 362 kts | 245° |
| 2026-05-07 18:11 | 60.03047 | 23.67891 | 19019 ft | 364 kts | 245° |
| 2026-05-07 18:11 | 60.02261 | 23.64917 | 19344 ft | 365 kts | 245° |
| 2026-05-07 18:11 | 60.00668 | 23.58897 | 19994 ft | 367 kts | 245° |
| 2026-05-07 18:11 | 59.99468 | 23.54375 | 20454 ft | 368 kts | 245° |
| 2026-05-07 18:12 | 59.98668 | 23.51370 | 20754 ft | 370 kts | 245° |
| 2026-05-07 18:12 | 59.97062 | 23.45345 | 21363 ft | 372 kts | 245° |
| 2026-05-07 18:12 | 59.95843 | 23.40776 | 21798 ft | 373 kts | 245° |
| 2026-05-07 18:12 | 59.95026 | 23.37720 | 22089 ft | 374 kts | 245° |
| 2026-05-07 18:13 | 59.93788 | 23.33097 | 22534 ft | 376 kts | 245° |
| 2026-05-07 18:13 | 59.92550 | 23.28484 | 22961 ft | 378 kts | 245° |
| 2026-05-07 18:13 | 59.91319 | 23.23911 | 23373 ft | 379 kts | 245° |
| 2026-05-07 18:13 | 59.90064 | 23.19260 | 23765 ft | 381 kts | 245° |
| 2026-05-07 18:14 | 59.88800 | 23.14578 | 24100 ft | 383 kts | 245° |
| 2026-05-07 18:14 | 59.87545 | 23.09934 | 24337 ft | 386 kts | 245° |
| 2026-05-07 18:14 | 59.86257 | 23.05184 | 24614 ft | 390 kts | 244° |
| 2026-05-07 18:14 | 59.84960 | 23.00415 | 24903 ft | 392 kts | 244° |
| 2026-05-07 18:15 | 59.83654 | 22.95628 | 25223 ft | 394 kts | 244° |
| 2026-05-07 18:15 | 59.82361 | 22.90898 | 25563 ft | 395 kts | 245° |
| 2026-05-07 18:15 | 59.81042 | 22.86078 | 25869 ft | 397 kts | 245° |
| 2026-05-07 18:15 | 59.79718 | 22.81237 | 26158 ft | 399 kts | 245° |
| 2026-05-07 18:16 | 59.78401 | 22.76432 | 26443 ft | 401 kts | 244° |
| 2026-05-07 18:16 | 59.77059 | 22.71558 | 26745 ft | 402 kts | 244° |
| 2026-05-07 18:16 | 59.75707 | 22.66654 | 27032 ft | 404 kts | 244° |
| 2026-05-07 18:16 | 59.74352 | 22.61739 | 27319 ft | 406 kts | 244° |
| 2026-05-07 18:17 | 59.73004 | 22.56860 | 27622 ft | 408 kts | 244° |
| 2026-05-07 18:17 | 59.71635 | 22.51929 | 27979 ft | 408 kts | 244° |
| 2026-05-07 18:17 | 59.70258 | 22.46994 | 28391 ft | 407 kts | 244° |
| 2026-05-07 18:17 | 59.68880 | 22.42064 | 28807 ft | 406 kts | 244° |
| 2026-05-07 18:18 | 59.67530 | 22.37237 | 29209 ft | 405 kts | 244° |
| 2026-05-07 18:18 | 59.66161 | 22.32347 | 29616 ft | 404 kts | 244° |
| 2026-05-07 18:18 | 59.64795 | 22.27476 | 30005 ft | 403 kts | 244° |
| 2026-05-07 18:18 | 59.63432 | 22.22624 | 30370 ft | 402 kts | 244° |
| 2026-05-07 18:19 | 59.62089 | 22.17846 | 30677 ft | 402 kts | 244° |
| 2026-05-07 18:19 | 59.60724 | 22.13009 | 30960 ft | 402 kts | 244° |
| 2026-05-07 18:19 | 59.59358 | 22.08185 | 31242 ft | 402 kts | 244° |
| 2026-05-07 18:19 | 59.57987 | 22.03353 | 31519 ft | 403 kts | 244° |
| 2026-05-07 18:20 | 59.56617 | 21.98534 | 31817 ft | 403 kts | 244° |
| 2026-05-07 18:20 | 59.55241 | 21.93707 | 32093 ft | 403 kts | 244° |
| 2026-05-07 18:20 | 59.53878 | 21.88937 | 32366 ft | 403 kts | 244° |
| 2026-05-07 18:20 | 59.52491 | 21.84086 | 32614 ft | 403 kts | 244° |
| 2026-05-07 18:21 | 59.51127 | 21.79330 | 32821 ft | 403 kts | 244° |
| 2026-05-07 18:21 | 59.49735 | 21.74484 | 33037 ft | 405 kts | 244° |
| 2026-05-07 18:21 | 59.48343 | 21.69649 | 33265 ft | 405 kts | 244° |
| 2026-05-07 18:21 | 59.46967 | 21.64877 | 33509 ft | 406 kts | 244° |
| 2026-05-07 18:22 | 59.45567 | 21.60032 | 33766 ft | 406 kts | 244° |
| 2026-05-07 18:22 | 59.44641 | 21.56838 | 33928 ft | 406 kts | 244° |
| 2026-05-07 18:22 | 59.42764 | 21.50371 | 34138 ft | 407 kts | 243° |
| 2026-05-07 18:23 | 59.39956 | 21.40743 | 34158 ft | 408 kts | 243° |
| 2026-05-07 18:23 | 59.37139 | 21.31112 | 34158 ft | 408 kts | 243° |
| 2026-05-07 18:24 | 59.34311 | 21.21459 | 34157 ft | 408 kts | 243° |
| 2026-05-07 18:24 | 59.31470 | 21.11808 | 34125 ft | 413 kts | 243° |
| 2026-05-07 18:25 | 59.28561 | 21.01986 | 34165 ft | 418 kts | 243° |
| 2026-05-07 18:25 | 59.25641 | 20.92162 | 34169 ft | 419 kts | 243° |
| 2026-05-07 18:26 | 59.22712 | 20.82359 | 34176 ft | 420 kts | 243° |
| 2026-05-07 18:26 | 59.19752 | 20.72496 | 34180 ft | 420 kts | 243° |
| 2026-05-07 18:27 | 59.16797 | 20.62631 | 34183 ft | 420 kts | 244° |
| 2026-05-07 18:27 | 59.13909 | 20.52761 | 34185 ft | 420 kts | 244° |
| 2026-05-07 18:28 | 59.11034 | 20.42905 | 34144 ft | 421 kts | 244° |
| 2026-05-07 18:28 | 59.08117 | 20.32976 | 34161 ft | 422 kts | 244° |
| 2026-05-07 18:29 | 59.05205 | 20.23144 | 34175 ft | 422 kts | 243° |
| 2026-05-07 18:29 | 59.02250 | 20.13235 | 34199 ft | 423 kts | 244° |
| 2026-05-07 18:30 | 58.99300 | 20.03392 | 34196 ft | 422 kts | 244° |
| 2026-05-07 18:30 | 58.96360 | 19.93585 | 34195 ft | 422 kts | 244° |
| 2026-05-07 18:31 | 58.93405 | 19.83755 | 34140 ft | 422 kts | 244° |
| 2026-05-07 18:31 | 58.90420 | 19.73902 | 34144 ft | 423 kts | 243° |
| 2026-05-07 18:32 | 58.87439 | 19.64118 | 34149 ft | 425 kts | 243° |
| 2026-05-07 18:32 | 58.84429 | 19.54251 | 34162 ft | 425 kts | 243° |
| 2026-05-07 18:33 | 58.81425 | 19.44433 | 34173 ft | 426 kts | 243° |
| 2026-05-07 18:33 | 58.78391 | 19.34589 | 34189 ft | 426 kts | 243° |
| 2026-05-07 18:34 | 58.75364 | 19.24823 | 34192 ft | 426 kts | 243° |
| 2026-05-07 18:34 | 58.72312 | 19.15001 | 34146 ft | 427 kts | 243° |
| 2026-05-07 18:35 | 58.69261 | 19.05210 | 34168 ft | 429 kts | 243° |
| 2026-05-07 18:35 | 58.66176 | 18.95347 | 34167 ft | 430 kts | 243° |
| 2026-05-07 18:36 | 58.63091 | 18.85530 | 34170 ft | 431 kts | 243° |
| 2026-05-07 18:36 | 58.59997 | 18.75723 | 34175 ft | 431 kts | 243° |
| 2026-05-07 18:37 | 58.56868 | 18.65865 | 34179 ft | 431 kts | 243° |
| 2026-05-07 18:37 | 58.53751 | 18.56095 | 34153 ft | 432 kts | 242° |
| 2026-05-07 18:38 | 58.50615 | 18.46281 | 34146 ft | 433 kts | 242° |
| 2026-05-07 18:38 | 58.47445 | 18.36410 | 34155 ft | 435 kts | 242° |
| 2026-05-07 18:39 | 58.44280 | 18.26583 | 34170 ft | 436 kts | 242° |
| 2026-05-07 18:39 | 58.41089 | 18.16717 | 34171 ft | 436 kts | 242° |
| 2026-05-07 18:40 | 58.37907 | 18.06941 | 34175 ft | 436 kts | 242° |
| 2026-05-07 18:40 | 58.34696 | 17.97111 | 34180 ft | 437 kts | 242° |
| 2026-05-07 18:41 | 58.31456 | 17.87260 | 34156 ft | 438 kts | 241° |
| 2026-05-07 18:41 | 58.28232 | 17.77457 | 34160 ft | 439 kts | 241° |
| 2026-05-07 18:42 | 58.24993 | 17.67639 | 34156 ft | 440 kts | 241° |
| 2026-05-07 18:42 | 58.21735 | 17.57830 | 34170 ft | 440 kts | 241° |
| 2026-05-07 18:43 | 58.18455 | 17.47985 | 34188 ft | 441 kts | 241° |
| 2026-05-07 18:43 | 58.15179 | 17.38206 | 34183 ft | 440 kts | 241° |
| 2026-05-07 18:44 | 58.11880 | 17.28375 | 34153 ft | 441 kts | 240° |
| 2026-05-07 18:44 | 58.08587 | 17.18622 | 34157 ft | 443 kts | 240° |
| 2026-05-07 18:45 | 58.05256 | 17.08805 | 34170 ft | 444 kts | 240° |
| 2026-05-07 18:45 | 58.01926 | 16.99022 | 34180 ft | 444 kts | 240° |
| 2026-05-07 18:46 | 57.98592 | 16.89255 | 34231 ft | 445 kts | 240° |
| 2026-05-07 18:46 | 57.96909 | 16.84334 | 34452 ft | 444 kts | 240° |
| 2026-05-07 18:46 | 57.95234 | 16.79456 | 34660 ft | 443 kts | 240° |
| 2026-05-07 18:46 | 57.93571 | 16.74622 | 34858 ft | 442 kts | 240° |
| 2026-05-07 18:47 | 57.91885 | 16.69731 | 35003 ft | 443 kts | 239° |
| 2026-05-07 18:47 | 57.90196 | 16.64845 | 35135 ft | 444 kts | 239° |
| 2026-05-07 18:47 | 57.88524 | 16.60023 | 35299 ft | 444 kts | 239° |
| 2026-05-07 18:47 | 57.86835 | 16.55165 | 35473 ft | 444 kts | 239° |
| 2026-05-07 18:48 | 57.85140 | 16.50293 | 35653 ft | 443 kts | 239° |
| 2026-05-07 18:48 | 57.83461 | 16.45486 | 35823 ft | 443 kts | 239° |
| 2026-05-07 18:48 | 57.81766 | 16.40633 | 36011 ft | 442 kts | 239° |
| 2026-05-07 18:48 | 57.80077 | 16.35796 | 36149 ft | 443 kts | 239° |
| 2026-05-07 18:49 | 57.78403 | 16.31015 | 36168 ft | 442 kts | 239° |
| 2026-05-07 18:49 | 57.75015 | 16.21367 | 36167 ft | 442 kts | 239° |
| 2026-05-07 18:50 | 57.71640 | 16.11803 | 36164 ft | 442 kts | 238° |
| 2026-05-07 18:50 | 57.68229 | 16.02194 | 36161 ft | 442 kts | 238° |
| 2026-05-07 18:51 | 57.64834 | 15.92658 | 36158 ft | 442 kts | 238° |
| 2026-05-07 18:51 | 57.61404 | 15.83053 | 36172 ft | 443 kts | 238° |
| 2026-05-07 18:52 | 57.57987 | 15.73529 | 36165 ft | 443 kts | 238° |
| 2026-05-07 18:52 | 57.54545 | 15.63956 | 36169 ft | 444 kts | 238° |
| 2026-05-07 18:53 | 57.51102 | 15.54443 | 36146 ft | 444 kts | 238° |
| 2026-05-07 18:53 | 57.47645 | 15.44949 | 36144 ft | 445 kts | 238° |
| 2026-05-07 18:54 | 57.44154 | 15.35386 | 36156 ft | 446 kts | 238° |
| 2026-05-07 18:54 | 57.40685 | 15.25873 | 36155 ft | 447 kts | 238° |
| 2026-05-07 18:55 | 57.37197 | 15.16357 | 36149 ft | 447 kts | 237° |
| 2026-05-07 18:55 | 57.33546 | 15.06958 | 36147 ft | 448 kts | 234° |
| 2026-05-07 18:56 | 57.29701 | 14.97935 | 36137 ft | 449 kts | 233° |
| 2026-05-07 18:56 | 57.25783 | 14.88923 | 36135 ft | 450 kts | 233° |
| 2026-05-07 18:57 | 57.21908 | 14.79893 | 36138 ft | 450 kts | 233° |
| 2026-05-07 18:57 | 57.18033 | 14.70771 | 36138 ft | 451 kts | 233° |
| 2026-05-07 18:58 | 57.14151 | 14.61660 | 36129 ft | 451 kts | 233° |
| 2026-05-07 18:58 | 57.10267 | 14.52626 | 36135 ft | 451 kts | 233° |
| 2026-05-07 18:59 | 57.06342 | 14.43559 | 36129 ft | 452 kts | 233° |
| 2026-05-07 18:59 | 57.02439 | 14.34565 | 36130 ft | 452 kts | 232° |
| 2026-05-07 19:00 | 56.99169 | 14.27065 | 36135 ft | 453 kts | 232° |
| 2026-05-07 19:00 | 56.94579 | 14.16547 | 36145 ft | 453 kts | 233° |
| 2026-05-07 19:01 | 56.91277 | 14.09017 | 36150 ft | 453 kts | 232° |
| 2026-05-07 19:01 | 56.87331 | 14.00061 | 36151 ft | 453 kts | 232° |
| 2026-05-07 19:02 | 56.83366 | 13.91078 | 36145 ft | 454 kts | 232° |
| 2026-05-07 19:02 | 56.79420 | 13.82143 | 36152 ft | 454 kts | 232° |
| 2026-05-07 19:03 | 56.75427 | 13.73170 | 36159 ft | 455 kts | 232° |
| 2026-05-07 19:03 | 56.71453 | 13.64271 | 36163 ft | 455 kts | 232° |
| 2026-05-07 19:04 | 56.67429 | 13.55299 | 36171 ft | 455 kts | 232° |
| 2026-05-07 19:04 | 56.63435 | 13.46424 | 36174 ft | 455 kts | 231° |
| 2026-05-07 19:05 | 56.59406 | 13.37511 | 36169 ft | 456 kts | 231° |
| 2026-05-07 19:05 | 56.55393 | 13.28643 | 36170 ft | 456 kts | 232° |
| 2026-05-07 19:06 | 56.51368 | 13.19794 | 36169 ft | 456 kts | 231° |
| 2026-05-07 19:06 | 56.45312 | 13.06529 | 36165 ft | 456 kts | 231° |
| 2026-05-07 19:07 | 56.41246 | 12.97667 | 36156 ft | 457 kts | 231° |
| 2026-05-07 19:07 | 56.37202 | 12.88888 | 36154 ft | 457 kts | 231° |
| 2026-05-07 19:08 | 56.33112 | 12.80052 | 36155 ft | 458 kts | 231° |
| 2026-05-07 19:08 | 56.29044 | 12.71288 | 36159 ft | 458 kts | 231° |
| 2026-05-07 19:09 | 56.24939 | 12.62472 | 36181 ft | 458 kts | 231° |
| 2026-05-07 19:09 | 56.20856 | 12.53742 | 36182 ft | 458 kts | 231° |
| 2026-05-07 19:10 | 56.16729 | 12.44954 | 36178 ft | 459 kts | 230° |
| 2026-05-07 19:10 | 56.12618 | 12.36235 | 36176 ft | 460 kts | 230° |
| 2026-05-07 19:11 | 56.08475 | 12.27466 | 36178 ft | 460 kts | 230° |
| 2026-05-07 19:11 | 56.04355 | 12.18768 | 36178 ft | 460 kts | 230° |
| 2026-05-07 19:12 | 56.00192 | 12.10033 | 36179 ft | 460 kts | 230° |
| 2026-05-07 19:12 | 55.96034 | 12.01329 | 36176 ft | 461 kts | 230° |
| 2026-05-07 19:13 | 55.91864 | 11.92636 | 36182 ft | 462 kts | 230° |
| 2026-05-07 19:13 | 55.87668 | 11.83915 | 36184 ft | 462 kts | 230° |
| 2026-05-07 19:14 | 55.83494 | 11.75264 | 36185 ft | 462 kts | 230° |
| 2026-05-07 19:14 | 55.79310 | 11.66640 | 36185 ft | 462 kts | 229° |
| 2026-05-07 19:15 | 55.75119 | 11.58037 | 36182 ft | 462 kts | 229° |
| 2026-05-07 19:15 | 55.70891 | 11.49388 | 36180 ft | 463 kts | 229° |
| 2026-05-07 19:16 | 55.66688 | 11.40809 | 36177 ft | 463 kts | 229° |
| 2026-05-07 19:16 | 55.62449 | 11.32165 | 36177 ft | 463 kts | 229° |
| 2026-05-07 19:17 | 55.58227 | 11.23614 | 36179 ft | 464 kts | 229° |
| 2026-05-07 19:17 | 55.53964 | 11.15013 | 36179 ft | 463 kts | 229° |
| 2026-05-07 19:18 | 55.49733 | 11.06496 | 36179 ft | 463 kts | 229° |
| 2026-05-07 19:18 | 55.45481 | 10.97986 | 36180 ft | 463 kts | 229° |
| 2026-05-07 19:19 | 55.41207 | 10.89445 | 36183 ft | 463 kts | 229° |
| 2026-05-07 19:19 | 55.36953 | 10.80980 | 36182 ft | 463 kts | 229° |
| 2026-05-07 19:20 | 55.32674 | 10.72487 | 36183 ft | 463 kts | 229° |
| 2026-05-07 19:20 | 55.28415 | 10.64069 | 36181 ft | 463 kts | 228° |
| 2026-05-07 19:21 | 55.24120 | 10.55610 | 36181 ft | 463 kts | 228° |
| 2026-05-07 19:21 | 55.19834 | 10.47187 | 36182 ft | 464 kts | 228° |
| 2026-05-07 19:22 | 55.15542 | 10.38794 | 36180 ft | 464 kts | 228° |
| 2026-05-07 19:22 | 55.11227 | 10.30390 | 36182 ft | 464 kts | 228° |
| 2026-05-07 19:23 | 55.06926 | 10.22039 | 36182 ft | 464 kts | 228° |
| 2026-05-07 19:23 | 55.02587 | 10.13659 | 36185 ft | 464 kts | 228° |
| 2026-05-07 19:24 | 54.98278 | 10.05340 | 36186 ft | 464 kts | 227° |
| 2026-05-07 19:24 | 54.93931 | 9.96981 | 36187 ft | 465 kts | 227° |
| 2026-05-07 19:25 | 54.89598 | 9.88677 | 36188 ft | 465 kts | 227° |
| 2026-05-07 19:25 | 54.85235 | 9.80358 | 36190 ft | 465 kts | 227° |
| 2026-05-07 19:26 | 54.80877 | 9.72049 | 36172 ft | 465 kts | 227° |
| 2026-05-07 19:26 | 54.76619 | 9.63682 | 36165 ft | 465 kts | 229° |
| 2026-05-07 19:27 | 54.72354 | 9.55186 | 36166 ft | 465 kts | 229° |
| 2026-05-07 19:27 | 54.68094 | 9.46767 | 36163 ft | 465 kts | 228° |
| 2026-05-07 19:28 | 54.63815 | 9.38403 | 36161 ft | 465 kts | 228° |
| 2026-05-07 19:28 | 54.59528 | 9.30076 | 36155 ft | 466 kts | 228° |
| 2026-05-07 19:29 | 54.55205 | 9.21693 | 36157 ft | 466 kts | 228° |
| 2026-05-07 19:29 | 54.50910 | 9.13385 | 36155 ft | 466 kts | 227° |
| 2026-05-07 19:30 | 54.46599 | 9.05079 | 36155 ft | 466 kts | 227° |
| 2026-05-07 19:30 | 54.42272 | 8.96750 | 36157 ft | 466 kts | 227° |
| 2026-05-07 19:31 | 54.37961 | 8.88478 | 36156 ft | 466 kts | 227° |
| 2026-05-07 19:31 | 54.33604 | 8.80178 | 36155 ft | 466 kts | 227° |
| 2026-05-07 19:32 | 54.29274 | 8.71963 | 36154 ft | 466 kts | 227° |
| 2026-05-07 19:32 | 54.24938 | 8.63751 | 36154 ft | 466 kts | 227° |
| 2026-05-07 19:33 | 54.20571 | 8.55500 | 36153 ft | 466 kts | 227° |
| 2026-05-07 19:33 | 54.16226 | 8.47325 | 36162 ft | 465 kts | 226° |
| 2026-05-07 19:34 | 54.11882 | 8.39164 | 36157 ft | 465 kts | 226° |
| 2026-05-07 19:34 | 54.07515 | 8.30980 | 36156 ft | 465 kts | 226° |
| 2026-05-07 19:35 | 54.03163 | 8.22872 | 36151 ft | 465 kts | 226° |
| 2026-05-07 19:35 | 53.98796 | 8.14774 | 36149 ft | 465 kts | 226° |
| 2026-05-07 19:36 | 53.94397 | 8.06649 | 36157 ft | 464 kts | 227° |
| 2026-05-07 19:36 | 53.90045 | 7.98623 | 36160 ft | 463 kts | 226° |
| 2026-05-07 19:37 | 53.85685 | 7.90591 | 36151 ft | 462 kts | 226° |
| 2026-05-07 19:37 | 53.81346 | 7.82628 | 36150 ft | 461 kts | 226° |
| 2026-05-07 19:38 | 53.76979 | 7.74655 | 36142 ft | 461 kts | 225° |
| 2026-05-07 19:38 | 53.72632 | 7.66741 | 36146 ft | 460 kts | 226° |
| 2026-05-07 19:39 | 53.68279 | 7.58838 | 36144 ft | 459 kts | 226° |
| 2026-05-07 19:39 | 53.64648 | 7.52276 | 36144 ft | 457 kts | 226° |
| 2026-05-07 19:40 | 53.59590 | 7.43152 | 36150 ft | 456 kts | 226° |
| 2026-05-07 19:40 | 53.55269 | 7.35380 | 36148 ft | 456 kts | 226° |
| 2026-05-07 19:41 | 53.50942 | 7.27628 | 36147 ft | 455 kts | 226° |
| 2026-05-07 19:41 | 53.46596 | 7.19870 | 36152 ft | 454 kts | 226° |
| 2026-05-07 19:42 | 53.42276 | 7.12187 | 36169 ft | 453 kts | 226° |
| 2026-05-07 19:42 | 53.37943 | 7.04503 | 36158 ft | 453 kts | 226° |
| 2026-05-07 19:43 | 53.33600 | 6.96815 | 36163 ft | 452 kts | 226° |
| 2026-05-07 19:43 | 53.29279 | 6.89207 | 36146 ft | 452 kts | 226° |
| 2026-05-07 19:44 | 53.24958 | 6.81615 | 36142 ft | 452 kts | 226° |
| 2026-05-07 19:44 | 53.20618 | 6.73998 | 36130 ft | 452 kts | 226° |
| 2026-05-07 19:45 | 53.16263 | 6.66398 | 36132 ft | 452 kts | 226° |
| 2026-05-07 19:45 | 53.11845 | 6.58991 | 36132 ft | 452 kts | 224° |
| 2026-05-07 19:46 | 53.07344 | 6.51725 | 36137 ft | 452 kts | 223° |
| 2026-05-07 19:46 | 53.02810 | 6.44435 | 36149 ft | 451 kts | 224° |
| 2026-05-07 19:47 | 52.98313 | 6.37134 | 36132 ft | 451 kts | 224° |
| 2026-05-07 19:47 | 52.93853 | 6.29876 | 36141 ft | 451 kts | 224° |
| 2026-05-07 19:48 | 52.89382 | 6.22638 | 36121 ft | 450 kts | 224° |
| 2026-05-07 19:48 | 52.85617 | 6.16572 | 36122 ft | 450 kts | 224° |
| 2026-05-07 19:49 | 52.81137 | 6.09389 | 36134 ft | 450 kts | 224° |
| 2026-05-07 19:49 | 52.76632 | 6.02190 | 36123 ft | 449 kts | 223° |
| 2026-05-07 19:50 | 52.71986 | 5.95357 | 36115 ft | 449 kts | 220° |
| 2026-05-07 19:50 | 52.67188 | 5.88725 | 36121 ft | 448 kts | 220° |
| 2026-05-07 19:51 | 52.62439 | 5.82135 | 36119 ft | 448 kts | 220° |
| 2026-05-07 19:51 | 52.57691 | 5.75459 | 36123 ft | 448 kts | 221° |
| 2026-05-07 19:52 | 52.52981 | 5.68809 | 36108 ft | 447 kts | 221° |
| 2026-05-07 19:52 | 52.48246 | 5.62149 | 36113 ft | 447 kts | 221° |
| 2026-05-07 19:53 | 52.43542 | 5.55562 | 36103 ft | 447 kts | 221° |
| 2026-05-07 19:53 | 52.38808 | 5.48974 | 36093 ft | 446 kts | 221° |
| 2026-05-07 19:54 | 52.34064 | 5.42392 | 36106 ft | 446 kts | 221° |
| 2026-05-07 19:54 | 52.29320 | 5.35823 | 36117 ft | 446 kts | 221° |
| 2026-05-07 19:55 | 52.24622 | 5.29320 | 36117 ft | 443 kts | 221° |
| 2026-05-07 19:55 | 52.19915 | 5.22833 | 35891 ft | 438 kts | 220° |
| 2026-05-07 19:56 | 52.17585 | 5.19634 | 35317 ft | 438 kts | 220° |
| 2026-05-07 19:56 | 52.15275 | 5.16466 | 34657 ft | 439 kts | 220° |
| 2026-05-07 19:56 | 52.12776 | 5.13582 | 33863 ft | 440 kts | 211° |
| 2026-05-07 19:56 | 52.10032 | 5.11405 | 33016 ft | 438 kts | 202° |
| 2026-05-07 19:57 | 52.07163 | 5.09640 | 32175 ft | 441 kts | 202° |
| 2026-05-07 19:57 | 52.04273 | 5.07854 | 31336 ft | 444 kts | 202° |
| 2026-05-07 19:57 | 52.01402 | 5.06071 | 30447 ft | 448 kts | 202° |
| 2026-05-07 19:57 | 51.98464 | 5.04240 | 29420 ft | 453 kts | 202° |
| 2026-05-07 19:58 | 51.95532 | 5.02415 | 28583 ft | 450 kts | 202° |
| 2026-05-07 19:58 | 51.92618 | 5.00608 | 28081 ft | 443 kts | 202° |
| 2026-05-07 19:58 | 51.89776 | 4.98853 | 27492 ft | 439 kts | 202° |
| 2026-05-07 19:58 | 51.86928 | 4.97098 | 26885 ft | 434 kts | 202° |
| 2026-05-07 19:59 | 51.84115 | 4.95369 | 26299 ft | 430 kts | 202° |
| 2026-05-07 19:59 | 51.81330 | 4.93661 | 25720 ft | 426 kts | 202° |
| 2026-05-07 19:59 | 51.78567 | 4.91965 | 25130 ft | 422 kts | 202° |
| 2026-05-07 19:59 | 51.75861 | 4.90307 | 24575 ft | 419 kts | 202° |
| 2026-05-07 20:00 | 51.73139 | 4.88643 | 24005 ft | 416 kts | 202° |
| 2026-05-07 20:00 | 51.70434 | 4.86994 | 23397 ft | 412 kts | 202° |
| 2026-05-07 20:00 | 51.67938 | 4.84882 | 22723 ft | 406 kts | 219° |
| 2026-05-07 20:00 | 51.65999 | 4.81613 | 22168 ft | 399 kts | 237° |
| 2026-05-07 20:01 | 51.64638 | 4.77739 | 21562 ft | 396 kts | 242° |
| 2026-05-07 20:01 | 51.63370 | 4.73815 | 20972 ft | 394 kts | 243° |
| 2026-05-07 20:01 | 51.62130 | 4.69961 | 20415 ft | 391 kts | 243° |
| 2026-05-07 20:01 | 51.60879 | 4.66066 | 19890 ft | 389 kts | 243° |
| 2026-05-07 20:02 | 51.59638 | 4.62203 | 19378 ft | 387 kts | 243° |
| 2026-05-07 20:02 | 51.58400 | 4.58352 | 18897 ft | 385 kts | 243° |
| 2026-05-07 20:02 | 51.57173 | 4.54533 | 18392 ft | 383 kts | 243° |
| 2026-05-07 20:02 | 51.55968 | 4.50786 | 17839 ft | 381 kts | 243° |
| 2026-05-07 20:03 | 51.54755 | 4.47008 | 17282 ft | 378 kts | 243° |
| 2026-05-07 20:03 | 51.53551 | 4.43254 | 16742 ft | 375 kts | 243° |
| 2026-05-07 20:03 | 51.52374 | 4.39581 | 16214 ft | 372 kts | 243° |
| 2026-05-07 20:03 | 51.51190 | 4.35882 | 15742 ft | 368 kts | 243° |
| 2026-05-07 20:04 | 51.50016 | 4.32213 | 15490 ft | 369 kts | 243° |
| 2026-05-07 20:04 | 51.48753 | 4.28635 | 15234 ft | 368 kts | 232° |
| 2026-05-07 20:04 | 51.46915 | 4.25870 | 15064 ft | 367 kts | 214° |
| 2026-05-07 20:04 | 51.44769 | 4.23642 | 15082 ft | 368 kts | 213° |
| 2026-05-07 20:05 | 51.42639 | 4.21491 | 15076 ft | 353 kts | 212° |
| 2026-05-07 20:05 | 51.40606 | 4.19449 | 15082 ft | 335 kts | 212° |
| 2026-05-07 20:05 | 51.38655 | 4.17494 | 15081 ft | 329 kts | 212° |
| 2026-05-07 20:05 | 51.36710 | 4.15546 | 15083 ft | 328 kts | 212° |
| 2026-05-07 20:06 | 51.34791 | 4.13653 | 15083 ft | 328 kts | 209° |
| 2026-05-07 20:06 | 51.32638 | 4.12502 | 15000 ft | 327 kts | 187° |
| 2026-05-07 20:06 | 51.30373 | 4.12732 | 14572 ft | 326 kts | 166° |
| 2026-05-07 20:06 | 51.28225 | 4.13777 | 14122 ft | 326 kts | 163° |
| 2026-05-07 20:07 | 51.26072 | 4.14926 | 13684 ft | 325 kts | 162° |
| 2026-05-07 20:07 | 51.23932 | 4.16079 | 13228 ft | 322 kts | 162° |
| 2026-05-07 20:07 | 51.21814 | 4.17220 | 12787 ft | 320 kts | 162° |
| 2026-05-07 20:07 | 51.19703 | 4.18355 | 12354 ft | 318 kts | 162° |
| 2026-05-07 20:08 | 51.17601 | 4.19481 | 11921 ft | 317 kts | 162° |
| 2026-05-07 20:08 | 51.15541 | 4.20580 | 11506 ft | 315 kts | 162° |
| 2026-05-07 20:08 | 51.13396 | 4.21720 | 11080 ft | 313 kts | 162° |
| 2026-05-07 20:08 | 51.11396 | 4.22779 | 10697 ft | 311 kts | 162° |
| 2026-05-07 20:09 | 51.09429 | 4.24190 | 10281 ft | 310 kts | 144° |
| 2026-05-07 20:09 | 51.07984 | 4.26666 | 9864 ft | 310 kts | 120° |
| 2026-05-07 20:09 | 51.07312 | 4.29896 | 9431 ft | 309 kts | 95° |
| 2026-05-07 20:10 | 51.07472 | 4.36700 | 8556 ft | 306 kts | 92° |
| 2026-05-07 20:10 | 51.07406 | 4.39994 | 8379 ft | 290 kts | 92° |
| 2026-05-07 20:10 | 51.07333 | 4.43149 | 7982 ft | 282 kts | 92° |
| 2026-05-07 20:10 | 51.07263 | 4.46204 | 7499 ft | 278 kts | 92° |
| 2026-05-07 20:11 | 51.07194 | 4.49266 | 7006 ft | 275 kts | 92° |
| 2026-05-07 20:11 | 51.07126 | 4.52308 | 6629 ft | 274 kts | 92° |
| 2026-05-07 20:11 | 51.07059 | 4.55294 | 6326 ft | 272 kts | 92° |
| 2026-05-07 20:11 | 51.06991 | 4.58284 | 6083 ft | 266 kts | 92° |
| 2026-05-07 20:12 | 51.06924 | 4.61173 | 5951 ft | 256 kts | 92° |
| 2026-05-07 20:12 | 51.06860 | 4.63960 | 5817 ft | 246 kts | 92° |
| 2026-05-07 20:12 | 51.06798 | 4.66582 | 5636 ft | 237 kts | 92° |
| 2026-05-07 20:12 | 51.06736 | 4.69175 | 5323 ft | 232 kts | 92° |
| 2026-05-07 20:13 | 51.06672 | 4.71723 | 4949 ft | 230 kts | 92° |
| 2026-05-07 20:13 | 51.06603 | 4.74257 | 4569 ft | 227 kts | 92° |
| 2026-05-07 20:13 | 51.06526 | 4.76762 | 4181 ft | 226 kts | 94° |
| 2026-05-07 20:13 | 51.06047 | 4.79077 | 3909 ft | 218 kts | 124° |
| 2026-05-07 20:14 | 51.05118 | 4.80844 | 3811 ft | 202 kts | 131° |
| 2026-05-07 20:14 | 51.04191 | 4.82403 | 3636 ft | 187 kts | 133° |
| 2026-05-07 20:14 | 51.03299 | 4.83881 | 3293 ft | 183 kts | 133° |
| 2026-05-07 20:14 | 51.02431 | 4.85317 | 3009 ft | 181 kts | 133° |
| 2026-05-07 20:15 | 51.01473 | 4.86627 | 2999 ft | 185 kts | 154° |
| 2026-05-07 20:15 | 51.00223 | 4.87105 | 3012 ft | 187 kts | 175° |
| 2026-05-07 20:15 | 50.98930 | 4.86817 | 3005 ft | 189 kts | 199° |
| 2026-05-07 20:15 | 50.97830 | 4.85714 | 3015 ft | 191 kts | 224° |
| 2026-05-07 20:16 | 50.97110 | 4.83918 | 3018 ft | 192 kts | 249° |
| 2026-05-07 20:16 | 50.96661 | 4.81938 | 3014 ft | 193 kts | 250° |
| 2026-05-07 20:16 | 50.96209 | 4.79937 | 3018 ft | 193 kts | 250° |
| 2026-05-07 20:16 | 50.95754 | 4.77931 | 3020 ft | 193 kts | 250° |
| 2026-05-07 20:17 | 50.95299 | 4.75930 | 3015 ft | 193 kts | 250° |
| 2026-05-07 20:17 | 50.94842 | 4.73925 | 2968 ft | 193 kts | 250° |
| 2026-05-07 20:17 | 50.94386 | 4.71930 | 2769 ft | 192 kts | 250° |
| 2026-05-07 20:17 | 50.93933 | 4.69942 | 2529 ft | 191 kts | 250° |
| 2026-05-07 20:18 | 50.93482 | 4.67971 | 2264 ft | 190 kts | 250° |
| 2026-05-07 20:18 | 50.93041 | 4.66042 | 2020 ft | 183 kts | 249° |
| 2026-05-07 20:18 | 50.92626 | 4.64231 | 1797 ft | 166 kts | 249° |
| 2026-05-07 20:18 | 50.92243 | 4.62558 | 1547 ft | 158 kts | 249° |
| 2026-05-07 20:19 | 50.91871 | 4.60935 | 1337 ft | 155 kts | 249° |
| 2026-05-07 20:19 | 50.91500 | 4.59339 | 1128 ft | 154 kts | 249° |
| 2026-05-07 20:19 | 50.91145 | 4.57765 | 941 ft | 153 kts | 250° |
| 2026-05-07 20:19 | 50.90787 | 4.56187 | 697 ft | 151 kts | 251° |
| 2026-05-07 20:20 | 50.90540 | 4.55133 | 572 ft | 150 kts | 249° |
| 2026-05-07 20:20 | 50.90065 | 4.53076 | 310 ft | 150 kts | 250° |
| 2026-05-07 20:20 | 50.89710 | 4.51545 | 173 ft | 139 kts | 250° |
| 2026-05-07 20:20 | 50.89440 | 4.50359 | 176 ft | 90 kts | 250° |
| 2026-05-07 20:21 | 50.89296 | 4.49744 | 177 ft | 41 kts | 250° |
| 2026-05-07 20:21 | 50.89222 | 4.49353 | 176 ft | 29 kts | 275° |
| 2026-05-07 20:21 | 50.89304 | 4.49172 | 169 ft | 13 kts | 310° |
| 2026-05-07 20:21 | 50.89377 | 4.49113 | 165 ft | 12 kts | 22° |
| 2026-05-07 20:22 | 50.89470 | 4.49153 | 161 ft | 16 kts | 8° |
| 2026-05-07 20:22 | 50.89586 | 4.49203 | 156 ft | 18 kts | 27° |
| 2026-05-07 20:22 | 50.89687 | 4.49279 | 150 ft | 17 kts | 12° |
| 2026-05-07 20:22 | 50.89810 | 4.49330 | 142 ft | 10 kts | 14° |
| 2026-05-07 20:23 | 50.89893 | 4.49364 | 137 ft | 14 kts | 14° |
| 2026-05-07 20:23 | 50.89982 | 4.49396 | 132 ft | 10 kts | 5° |
| 2026-05-07 20:23 | 50.90043 | 4.49325 | 128 ft | 12 kts | 336° |
| 2026-05-07 20:23 | 50.90128 | 4.49342 | 129 ft | 13 kts | 14° |
| 2026-05-07 20:24 | 50.90223 | 4.49380 | 128 ft | 16 kts | 14° |
| 2026-05-07 20:24 | 50.90338 | 4.49428 | 124 ft | 18 kts | 14° |
| 2026-05-07 20:24 | 50.90421 | 4.49409 | 123 ft | 8 kts | 290° |
| 2026-05-07 20:24 | 50.90402 | 4.49322 | 119 ft | 10 kts | 246° |
| 2026-05-07 20:25 | 50.90369 | 4.49208 | 122 ft | 12 kts | 245° |
| 2026-05-07 20:25 | 50.90336 | 4.49094 | 121 ft | 11 kts | 245° |
| 2026-05-07 20:25 | 50.90304 | 4.48982 | 123 ft | 12 kts | 245° |
| 2026-05-07 20:25 | 50.90282 | 4.48880 | 121 ft | 8 kts | 284° |
| 2026-05-07 20:26 | 50.90334 | 4.48836 | 120 ft | 4 kts | 335° |
| 2026-05-07 20:26 | 50.90347 | 4.48827 | 118 ft | 0 kts | 335° |